This is the latest recevied weather packets stored in our database for station/object IZ1CYF-13. If no packets are shown the sender has not sent any weather packets the latest 10 day(s).
| Time | Temp. | Humidity | Pressure | Rain* | Wind** | Luminosity | Snow |
|---|---|---|---|---|---|---|---|
| 1777614544 | 18.33° C | 47% | 1027.8 hPa | - | - | - | - |
| 1777612144 | 18.89° C | 45% | 1027.3 hPa | - | - | - | - |
| 1777607945 | 16.11° C | 51% | 1027.3 hPa | - | - | - | - |
| 1777604961 | 14.44° C | 58% | 1027.7 hPa | - | - | - | - |
| 1777604345 | 15° C | 57% | 1027.6 hPa | - | - | - | - |
| 1777602545 | 16.11° C | 54% | 1027.3 hPa | - | - | - | - |
| 1777598345 | 16.11° C | 54% | 1027.1 hPa | - | - | - | - |
| 1777593551 | 16.11° C | 55% | 1027 hPa | - | - | - | - |
| 1777592945 | 14.44° C | 60% | 1027.6 hPa | - | - | - | - |
| 1777591760 | 13.89° C | 60% | 1027.5 hPa | - | - | - | - |
| 1777588745 | 15.56° C | 57% | 1027 hPa | - | - | - | - |
| 1777582742 | 14.44° C | 60% | 1027.4 hPa | - | - | - | - |
| 1777582141 | 15° C | 60% | 1027.4 hPa | - | - | - | - |
| 1777580357 | 15° C | 60% | 1027 hPa | - | - | - | - |
| 1777571942 | 17.22° C | 54% | 1025.1 hPa | - | - | - | - |
| 1777565942 | 16.67° C | 51% | 1025.1 hPa | - | - | - | - |
| 1777564742 | 17.22° C | 50% | 1025.1 hPa | - | - | - | - |
| 1777562942 | 16.11° C | 54% | 1025.6 hPa | - | - | - | - |
| 1777556942 | 16.11° C | 58% | 1026.4 hPa | - | - | - | - |
| 1777556358 | 15° C | 61% | 1026.7 hPa | - | - | - | - |
| 1777553343 | 15° C | 62% | 1027.1 hPa | - | - | - | - |
| 1777552158 | 16.11° C | 58% | 1026.8 hPa | - | - | - | - |
| 1777547943 | 15° C | 62% | 1027.3 hPa | - | - | - | - |
| 1777547343 | 14.44° C | 62% | 1027.3 hPa | - | - | - | - |
| 1777546143 | 18.89° C | 49% | 1026 hPa | - | - | - | - |
* Rain since midnight (hover to see other rain measurements)
** Current wind speed in m/s (hover to see current wind gust speed)